Time;durP1;ratioP1;P1;durP2;ratioP2;P2;SDS_P1;SDS_P2;PMS_P1;PMS_P2;Temp;Humidity;BMP_temperature;BMP_pressure;BME280_temperature;BME280_humidity;BME280_pressure;Samples;Min_cycle;Max_cycle;Signal;HPM_P1;HPM_P2
2022/11/05 00:17:54;;;;;;;;;;;;;;;5.85;100.00;99471.69;4964214;28;19928;-90
2022/11/05 00:20:27;;;;;;;;;;;;;;;5.94;100.00;99472.28;4954775;28;19922;-88
2022/11/05 00:26:03;;;;;;;;;;;;;;;5.90;100.00;99465.34;4975136;28;19964;-87
2022/11/05 00:28:31;;;;;;;;;;;;;;;5.87;100.00;99469.84;4971308;28;20385;-90
2022/11/05 00:31:10;;;;;;;;;;;;;;;5.95;100.00;99468.75;4974738;28;19922;-93
2022/11/05 00:33:36;;;;;;;;;;;;;;;5.85;100.00;99472.53;4974881;28;19982;-87
2022/11/05 00:36:01;;;;;;;;;;;;;;;5.82;100.00;99477.88;4973826;28;19946;-86
2022/11/05 00:38:28;;;;;;;;;;;;;;;5.88;100.00;99477.69;4970670;28;19981;-92
2022/11/05 00:40:53;;;;;;;;;;;;;;;5.81;100.00;99481.44;4969864;28;19925;-90
2022/11/05 00:46:02;;;;;;;;;;;;;;;5.82;100.00;99485.75;4967144;28;19995;-88
2022/11/05 00:51:12;;;;;;;;;;;;;;;5.86;100.00;99483.94;4972870;28;19977;-87
2022/11/05 00:53:37;;;;;;;;;;;;;;;5.84;100.00;99491.84;4973758;28;19972;-91
2022/11/05 00:56:03;;;;;;;;;;;;;;;5.81;100.00;99486.69;4969368;28;19965;-88
2022/11/05 00:58:28;;;;;;;;;;;;;;;5.82;100.00;99491.00;4971360;28;20431;-87
2022/11/05 01:00:54;;;;;;;;;;;;;;;5.85;100.00;99488.31;4974305;28;19964;-88
2022/11/05 01:03:21;;;;;;;;;;;;;;;5.83;100.00;99498.00;4974582;28;19977;-90
2022/11/05 01:05:51;;;;;;;;;;;;;;;5.81;100.00;99498.06;4974531;28;19980;-87
2022/11/05 01:08:18;;;;;;;;;;;;;;;5.78;100.00;99502.53;4972796;28;20336;-86
2022/11/05 01:10:47;;;;;;;;;;;;;;;5.78;100.00;99505.16;4974026;28;20017;-92
2022/11/05 01:13:15;;;;;;;;;;;;;;;5.83;100.00;99511.16;4974006;28;20286;-87
2022/11/05 01:15:40;;;;;;;;;;;;;;;5.82;100.00;99504.16;4955223;28;19918;-86
2022/11/05 01:21:20;;;;;;;;;;;;;;;5.85;100.00;99498.81;5019326;23;19934;-92
2022/11/05 01:27:02;;;;;;;;;;;;;;;5.76;100.00;99513.09;4975931;23;20279;-91
2022/11/05 01:29:28;;;;;;;;;;;;;;;5.76;100.00;99520.09;4947039;29;19926;-88
2022/11/05 01:31:53;;;;;;;;;;;;;;;5.83;100.00;99522.53;4954995;29;19918;-90
2022/11/05 01:34:38;;;;;;;;;;;;;;;5.79;100.00;99526.16;4937670;29;19918;-93
2022/11/05 01:37:03;;;;;;;;;;;;;;;5.69;100.00;99535.19;4937678;29;20356;-90
2022/11/05 01:39:29;;;;;;;;;;;;;;;5.77;100.00;99538.47;4954744;29;19946;-86
2022/11/05 01:41:54;;;;;;;;;;;;;;;5.77;100.00;99538.47;4953529;28;19922;-88
2022/11/05 01:44:38;;;;;;;;;;;;;;;5.68;100.00;99535.22;4953494;29;19919;-86
2022/11/05 01:47:03;;;;;;;;;;;;;;;5.74;100.00;99537.69;4954747;29;20310;-89
2022/11/05 01:49:30;;;;;;;;;;;;;;;5.76;100.00;99544.66;4954628;29;19922;-86
2022/11/05 01:51:57;;;;;;;;;;;;;;;5.74;100.00;99540.31;4954680;29;19923;-87
2022/11/05 01:54:24;;;;;;;;;;;;;;;5.75;100.00;99544.69;4960730;28;20285;-88
2022/11/05 01:56:52;;;;;;;;;;;;;;;5.71;100.00;99550.91;4948978;28;19922;-87
2022/11/05 01:59:24;;;;;;;;;;;;;;;5.70;100.00;99547.44;4971822;28;19922;-90
2022/11/05 02:01:50;;;;;;;;;;;;;;;5.67;100.00;99552.78;4954834;29;19921;-85
2022/11/05 02:04:20;;;;;;;;;;;;;;;5.67;100.00;99563.28;4962250;28;19922;-86
2022/11/05 02:06:45;;;;;;;;;;;;;;;5.68;100.00;99564.16;4971297;28;19926;-85
2022/11/05 02:09:35;;;;;;;;;;;;;;;5.66;100.00;99572.06;4973758;28;20018;-89
2022/11/05 02:12:01;;;;;;;;;;;;;;;5.70;100.00;99575.50;4973975;28;19926;-88
2022/11/05 02:14:29;;;;;;;;;;;;;;;5.67;100.00;99573.81;4957338;28;19922;-93
2022/11/05 03:23:43;;;;;;;;;;;;;;;5.53;100.00;99637.22;5050292;23;19925;-83
2022/11/05 03:26:08;;;;;;;;;;;;;;;5.47;100.00;99634.75;4994421;28;19925;-82
2022/11/05 03:28:35;;;;;;;;;;;;;;;5.56;100.00;99639.78;4978131;28;19914;-82
2022/11/05 03:31:02;;;;;;;;;;;;;;;5.48;100.00;99633.88;4995576;28;19921;-83
2022/11/05 03:33:30;;;;;;;;;;;;;;;5.49;100.00;99629.47;4995441;28;19925;-83
2022/11/05 03:35:58;;;;;;;;;;;;;;;5.51;100.00;99628.53;4993800;28;19917;-84
2022/11/05 03:38:26;;;;;;;;;;;;;;;5.51;100.00;99631.16;4995419;28;20288;-84
2022/11/05 03:40:53;;;;;;;;;;;;;;;5.59;100.00;99631.81;4995311;28;20016;-85
2022/11/05 03:43:20;;;;;;;;;;;;;;;5.55;100.00;99642.44;4977915;28;19972;-85
2022/11/05 03:45:50;;;;;;;;;;;;;;;5.55;100.00;99638.09;4995309;28;19925;-85
2022/11/05 03:48:17;;;;;;;;;;;;;;;5.50;100.00;99645.19;4995552;28;20008;-84
2022/11/05 03:50:50;;;;;;;;;;;;;;;5.50;100.00;99650.44;4993880;28;19933;-83
2022/11/05 03:53:22;;;;;;;;;;;;;;;5.52;100.00;99653.94;4993951;28;20020;-91
2022/11/05 03:55:53;;;;;;;;;;;;;;;5.56;100.00;99650.31;4977682;28;20015;-83
2022/11/05 03:58:20;;;;;;;;;;;;;;;5.50;100.00;99666.22;4977630;28;19918;-84
2022/11/05 04:00:46;;;;;;;;;;;;;;;5.52;100.00;99669.69;4995032;28;20384;-82
2022/11/05 04:03:11;;;;;;;;;;;;;;;5.53;100.00;99671.41;4995090;28;20012;-83
2022/11/05 04:05:37;;;;;;;;;;;;;;;5.51;100.00;99677.63;4993762;28;20015;-83
2022/11/05 04:13:30;;;;;;;;;;;;;;;5.49;100.00;99688.16;4994767;28;19924;-84
2022/11/05 04:18:51;;;;;;;;;;;;;;;5.51;100.00;99688.13;4994653;28;20335;-88
2022/11/05 04:24:09;;;;;;;;;;;;;;;5.46;100.00;99685.59;4994783;28;19976;-83
2022/11/05 04:26:42;;;;;;;;;;;;;;;5.45;100.00;99692.59;4976953;28;19925;-83
2022/11/05 04:31:54;;;;;;;;;;;;;;;5.53;100.00;99702.94;4994776;28;19973;-83
2022/11/05 04:34:22;;;;;;;;;;;;;;;5.50;100.00;99704.78;4992440;28;19922;-83
2022/11/05 04:36:51;;;;;;;;;;;;;;;5.49;100.00;99701.31;4992943;28;19937;-83
2022/11/05 04:39:17;;;;;;;;;;;;;;;5.44;100.00;99705.78;4976828;28;19918;-83
2022/11/05 04:41:43;;;;;;;;;;;;;;;5.43;100.00;99706.69;4976803;28;19929;-83
2022/11/05 04:44:08;;;;;;;;;;;;;;;5.42;100.00;99723.34;4976766;28;20279;-83
2022/11/05 04:46:33;;;;;;;;;;;;;;;5.41;100.00;99716.38;4993179;28;20012;-83
2022/11/05 04:48:58;;;;;;;;;;;;;;;5.39;100.00;99728.69;4975959;28;19925;-83
2022/11/05 04:51:26;;;;;;;;;;;;;;;5.37;100.00;99727.84;4992706;28;19921;-83
2022/11/05 08:34:24;;;;;;;;;;;;;;;5.25;100.00;99944.44;5167341;23;19932;-90
2022/11/05 08:36:49;;;;;;;;;;;;;;;5.27;100.00;99951.38;4993498;28;19977;-88
2022/11/05 08:39:17;;;;;;;;;;;;;;;5.27;100.00;99948.75;4994348;28;19921;-88
2022/11/05 08:41:42;;;;;;;;;;;;;;;5.26;100.00;99957.56;4993288;28;19925;-88
2022/11/05 08:44:08;;;;;;;;;;;;;;;5.26;100.00;99954.91;4994279;28;19917;-89
2022/11/05 08:46:36;;;;;;;;;;;;;;;5.27;100.00;99959.25;4994358;28;19925;-89
2022/11/05 08:49:02;;;;;;;;;;;;;;;5.28;100.00;99970.63;4993101;28;19988;-90
2022/11/05 08:51:30;;;;;;;;;;;;;;;5.27;100.00;99964.53;4992943;28;20373;-89
2022/11/05 08:53:58;;;;;;;;;;;;;;;5.25;100.00;99965.47;4993064;28;19921;-88
2022/11/05 08:56:33;;;;;;;;;;;;;;;5.27;100.00;99964.53;4993174;28;20352;-90
2022/11/05 08:58:59;;;;;;;;;;;;;;;5.26;100.00;99969.81;4992853;28;19918;-90
2022/11/05 09:01:25;;;;;;;;;;;;;;;5.30;100.00;99975.84;4992797;28;20316;-89
2022/11/05 09:03:50;;;;;;;;;;;;;;;5.30;100.00;99974.13;4993159;28;20008;-88
2022/11/05 09:06:16;;;;;;;;;;;;;;;5.32;100.00;99981.97;4992396;28;20377;-89
2022/11/05 09:08:41;;;;;;;;;;;;;;;5.27;100.00;99988.16;4992815;28;19918;-88
2022/11/05 09:11:06;;;;;;;;;;;;;;;5.34;100.00;99983.66;4992562;28;19929;-88
2022/11/05 09:13:32;;;;;;;;;;;;;;;5.35;100.00;99985.41;4993902;28;19926;-89
2022/11/05 09:15:58;;;;;;;;;;;;;;;5.34;100.00;99988.06;4994091;28;19914;-89
2022/11/05 09:18:23;;;;;;;;;;;;;;;5.31;100.00;99994.22;4992776;28;20016;-89
2022/11/05 09:20:49;;;;;;;;;;;;;;;5.36;100.00;99995.03;4992290;28;20357;-88
2022/11/05 09:23:14;;;;;;;;;;;;;;;5.35;100.00;100001.16;4987929;28;20005;-89
2022/11/05 09:25:39;;;;;;;;;;;;;;;5.37;100.00;100003.78;4993876;28;19918;-88
2022/11/05 09:28:12;;;;;;;;;;;;;;;5.39;100.00;100004.59;4992564;28;19961;-89
2022/11/05 09:30:41;;;;;;;;;;;;;;;5.38;100.00;99998.50;4992464;28;19925;-88
2022/11/05 09:33:06;;;;;;;;;;;;;;;5.39;100.00;100009.84;4992591;28;19928;-88
2022/11/05 09:35:32;;;;;;;;;;;;;;;5.40;100.00;100006.34;4992348;28;19921;-89
2022/11/05 09:37:57;;;;;;;;;;;;;;;5.39;100.00;100016.00;4992412;28;19924;-89
2022/11/05 09:40:23;;;;;;;;;;;;;;;5.42;100.00;100010.66;4993754;28;19918;-88
2022/11/05 09:42:51;;;;;;;;;;;;;;;5.50;100.00;100018.41;4992609;28;19917;-88
2022/11/05 09:45:18;;;;;;;;;;;;;;;5.47;100.00;100018.47;4992485;28;19922;-90
2022/11/05 09:47:48;;;;;;;;;;;;;;;5.48;100.00;100020.22;4990422;28;21604;-90
2022/11/05 09:50:16;;;;;;;;;;;;;;;5.50;100.00;100021.03;4993340;28;19918;-89
2022/11/05 09:52:41;;;;;;;;;;;;;;;5.42;100.00;100026.44;4992381;28;19929;-89
2022/11/05 09:55:16;;;;;;;;;;;;;;;5.47;100.00;100028.97;4993552;28;19921;-89
2022/11/05 09:57:45;;;;;;;;;;;;;;;5.49;100.00;100032.47;4992297;28;19918;-89
2022/11/05 10:00:15;;;;;;;;;;;;;;;5.44;100.00;100027.28;4993525;28;19918;-88
2022/11/05 10:02:52;;;;;;;;;;;;;;;5.48;100.00;100035.13;4991126;28;19918;-88
2022/11/05 10:05:19;;;;;;;;;;;;;;;5.56;100.00;100038.47;4993343;28;19925;-89
2022/11/05 10:07:46;;;;;;;;;;;;;;;5.55;100.00;100041.97;4991993;28;19945;-89
2022/11/05 10:10:35;;;;;;;;;;;;;;;5.54;100.00;100045.53;4991929;28;19917;-90
2022/11/05 10:13:19;;;;;;;;;;;;;;;5.54;100.00;100049.00;4992084;28;19918;-90
2022/11/05 10:15:59;;;;;;;;;;;;;;;5.60;100.00;100046.28;4992103;28;19917;-88
2022/11/05 10:18:35;;;;;;;;;;;;;;;5.66;100.00;100047.06;4992255;28;19918;-88
2022/11/05 10:21:00;;;;;;;;;;;;;;;5.65;100.00;100054.09;5034233;23;20336;-89
2022/11/05 10:23:26;;;;;;;;;;;;;;;5.67;100.00;100047.03;5012730;28;19926;-90
2022/11/05 10:25:54;;;;;;;;;;;;;;;5.71;100.00;100047.81;5013022;28;19924;-91
2022/11/05 10:28:21;;;;;;;;;;;;;;;5.74;100.00;100058.28;4995231;28;20008;-89
2022/11/05 10:30:54;;;;;;;;;;;;;;;5.73;100.00;100053.94;5012884;28;19918;-89
2022/11/05 10:33:28;;;;;;;;;;;;;;;5.75;100.00;100057.41;5014472;28;19925;-88
2022/11/05 10:35:54;;;;;;;;;;;;;;;5.79;100.00;100057.31;4998843;28;19918;-89
2022/11/05 10:38:20;;;;;;;;;;;;;;;5.80;100.00;100060.81;5016139;28;20015;-89
2022/11/05 10:40:59;;;;;;;;;;;;;;;5.80;100.00;100063.44;4998833;28;20012;-89
2022/11/05 10:43:29;;;;;;;;;;;;;;;5.78;100.00;100067.88;4998498;28;20025;-89
2022/11/05 10:46:31;;;;;;;;;;;;;;;5.79;100.00;100061.69;5016093;28;19921;-87
2022/11/05 10:49:19;;;;;;;;;;;;;;;5.82;100.00;100073.03;4900207;29;19919;-90
2022/11/05 10:51:45;;;;;;;;;;;;;;;5.79;100.00;100072.22;4967396;28;19925;-88
2022/11/05 10:54:15;;;;;;;;;;;;;;;5.86;100.00;100071.22;4998479;28;20296;-90
2022/11/05 10:56:41;;;;;;;;;;;;;;;5.84;100.00;100070.38;5016010;28;20380;-90
2022/11/05 10:59:18;;;;;;;;;;;;;;;5.89;100.00;100068.53;4998071;28;19925;-88
2022/11/05 11:01:43;;;;;;;;;;;;;;;5.93;100.00;100070.19;4998283;28;19975;-89
2022/11/05 11:04:15;;;;;;;;;;;;;;;5.89;100.00;100065.91;4997075;28;20323;-89
2022/11/05 11:06:46;;;;;;;;;;;;;;;5.90;100.00;100064.13;4998296;28;20027;-88
2022/11/05 11:09:29;;;;;;;;;;;;;;;5.89;100.00;100068.53;5015646;28;19918;-89
2022/11/05 11:12:00;;;;;;;;;;;;;;;5.85;100.00;100065.97;5015735;28;19992;-88
2022/11/05 11:14:25;;;;;;;;;;;;;;;5.88;100.00;100071.19;4998183;28;20292;-88
2022/11/05 11:16:56;;;;;;;;;;;;;;;5.88;100.00;100065.94;5015437;28;19918;-88
2022/11/05 11:19:27;;;;;;;;;;;;;;;5.88;100.00;100072.03;4996503;28;20076;-90
2022/11/05 11:22:02;;;;;;;;;;;;;;;5.93;100.00;100064.06;4997290;28;19975;-89
2022/11/05 11:24:27;;;;;;;;;;;;;;;5.95;100.00;100062.25;5015568;28;19944;-89
2022/11/05 11:26:52;;;;;;;;;;;;;;;5.95;100.00;100063.16;5015359;28;20369;-88
2022/11/05 11:29:23;;;;;;;;;;;;;;;5.96;100.00;100064.00;4997787;28;19921;-89
2022/11/05 11:31:52;;;;;;;;;;;;;;;5.99;100.00;100048.19;5015383;28;19928;-89
2022/11/05 11:34:18;;;;;;;;;;;;;;;5.99;100.00;100059.59;4996299;28;19921;-89
2022/11/05 11:36:49;;;;;;;;;;;;;;;6.00;100.00;100056.06;5014958;28;19922;-87
2022/11/05 11:42:30;;;;;;;;;;;;;;;6.03;100.00;100059.53;4997474;28;19918;-86
2022/11/05 11:44:58;;;;;;;;;;;;;;;6.03;100.00;100055.16;5014944;28;19921;-87
2022/11/05 11:47:26;;;;;;;;;;;;;;;6.07;100.00;100061.22;4995851;28;19917;-87
2022/11/05 11:49:53;;;;;;;;;;;;;;;6.07;100.00;100058.56;5014835;28;19922;-87
2022/11/05 11:52:32;;;;;;;;;;;;;;;6.12;100.00;100064.59;5014770;28;20380;-91
2022/11/05 11:55:10;;;;;;;;;;;;;;;6.18;100.00;100061.84;4992851;28;19925;-88
2022/11/05 11:57:42;;;;;;;;;;;;;;;6.19;100.00;100055.72;4992785;28;19922;-87
2022/11/05 12:00:07;;;;;;;;;;;;;;;6.18;100.00;100054.81;4992855;28;19925;-87
2022/11/05 12:02:50;;;;;;;;;;;;;;;6.20;100.00;100048.66;4991334;28;20009;-86
2022/11/05 12:05:27;;;;;;;;;;;;;;;6.23;100.00;100060.00;4993080;28;20408;-88
2022/11/05 12:07:59;;;;;;;;;;;;;;;6.26;100.00;100061.69;4992336;28;20396;-87
2022/11/05 12:10:24;;;;;;;;;;;;;;;6.26;100.00;100062.56;4992548;28;19925;-90
2022/11/05 12:13:02;;;;;;;;;;;;;;;6.27;100.00;100053.78;4992758;28;19918;-87
2022/11/05 12:15:42;;;;;;;;;;;;;;;6.27;100.00;100059.03;4992656;28;19928;-90
2022/11/05 12:18:18;;;;;;;;;;;;;;;6.25;100.00;100052.91;4991399;28;19918;-86
2022/11/05 12:20:55;;;;;;;;;;;;;;;6.30;100.00;100051.09;4992129;28;19918;-89
2022/11/05 12:23:40;;;;;;;;;;;;;;;6.32;100.00;100048.41;4992655;28;19918;-88
2022/11/05 12:26:12;;;;;;;;;;;;;;;6.35;100.00;100049.22;4983915;28;19917;-87
2022/11/05 12:28:43;;;;;;;;;;;;;;;6.39;100.00;100039.47;5014144;28;19917;-88
2022/11/05 12:31:32;;;;;;;;;;;;;;;6.41;100.00;100037.66;5014036;28;19917;-87
2022/11/05 12:34:12;;;;;;;;;;;;;;;6.42;100.00;100038.56;5012842;28;19925;-88
2022/11/05 12:36:43;;;;;;;;;;;;;;;6.44;100.00;100031.47;4996419;28;20246;-87
2022/11/05 12:39:30;;;;;;;;;;;;;;;6.46;100.00;100032.31;5014094;28;19929;-87
2022/11/05 12:41:56;;;;;;;;;;;;;;;6.45;100.00;100025.31;4996406;28;20327;-87
2022/11/05 12:44:24;;;;;;;;;;;;;;;6.48;100.00;100025.25;5013937;28;19918;-87
2022/11/05 12:46:49;;;;;;;;;;;;;;;6.51;100.00;100028.69;5013974;28;20005;-87
2022/11/05 12:49:20;;;;;;;;;;;;;;;6.54;100.00;100025.09;5012860;28;19957;-87
2022/11/05 12:51:48;;;;;;;;;;;;;;;6.54;100.00;100019.84;5013607;28;19972;-87
2022/11/05 12:54:20;;;;;;;;;;;;;;;6.53;100.00;100012.84;5013376;28;19917;-87
2022/11/05 12:56:53;;;;;;;;;;;;;;;6.54;100.00;100019.84;5013488;28;19918;-87
2022/11/05 12:59:22;;;;;;;;;;;;;;;6.52;100.00;100014.59;5013687;28;19921;-88
2022/11/05 13:01:52;;;;;;;;;;;;;;;6.54;100.00;100004.94;5013597;28;19949;-87
2022/11/05 13:04:36;;;;;;;;;;;;;;;6.57;100.00;100013.66;4994770;28;19917;-87
2022/11/05 13:07:04;;;;;;;;;;;;;;;6.57;100.00;100003.97;5013713;28;19924;-87
2022/11/05 13:09:38;;;;;;;;;;;;;;;6.55;100.00;100008.41;5013402;28;19956;-87
2022/11/05 13:12:06;;;;;;;;;;;;;;;6.59;100.00;100009.19;5013545;28;20019;-87
2022/11/05 13:14:39;;;;;;;;;;;;;;;6.62;100.00;100011.75;5013452;28;20280;-87
2022/11/05 13:17:24;;;;;;;;;;;;;;;6.61;100.00;100007.41;5013483;28;19963;-88
2022/11/05 13:20:06;;;;;;;;;;;;;;;6.60;100.00;100009.16;5012626;28;20277;-87
2022/11/05 13:22:31;;;;;;;;;;;;;;;6.64;100.00;100007.34;4995612;28;20016;-91
2022/11/05 13:24:58;;;;;;;;;;;;;;;6.68;100.00;99990.56;4995917;28;20036;-86
2022/11/05 13:27:40;;;;;;;;;;;;;;;6.68;100.00;99991.41;4995703;28;19914;-86
2022/11/05 13:30:06;;;;;;;;;;;;;;;6.68;100.00;99996.69;5013446;28;19918;-87
2022/11/05 13:32:38;;;;;;;;;;;;;;;6.70;100.00;99994.91;5012002;28;20020;-87
2022/11/05 13:35:07;;;;;;;;;;;;;;;6.74;100.00;99990.41;5013315;28;19925;-86
2022/11/05 13:40:43;;;;;;;;;;;;;;;6.76;100.00;100000.91;5013628;28;19924;-87
2022/11/05 13:43:31;;;;;;;;;;;;;;;6.83;100.00;99997.22;5013268;28;19995;-86
2022/11/05 13:45:56;;;;;;;;;;;;;;;6.81;100.00;99993.75;4995030;28;19953;-87
2022/11/05 13:48:27;;;;;;;;;;;;;;;6.83;100.00;99999.84;5011989;28;20355;-87
2022/11/05 13:50:58;;;;;;;;;;;;;;;6.86;100.00;99999.78;5012948;28;19924;-88
2022/11/05 13:53:57;;;;;;;;;;;;;;;6.87;100.00;100001.53;4995692;28;19921;-91
2022/11/05 13:56:32;;;;;;;;;;;;;;;6.88;100.00;100008.53;4995367;28;19918;-87
2022/11/05 13:59:00;;;;;;;;;;;;;;;6.87;100.00;100009.44;4995389;28;20091;-87
2022/11/05 14:01:38;;;;;;;;;;;;;;;6.93;100.00;100006.66;5013064;28;20297;-87
2022/11/05 14:04:03;;;;;;;;;;;;;;;6.91;100.00;100004.06;4994221;28;20305;-88
2022/11/05 14:06:35;;;;;;;;;;;;;;;6.94;100.00;99999.59;4997150;28;19918;-88
2022/11/05 14:09:11;;;;;;;;;;;;;;;6.94;100.00;99992.59;5016709;28;19918;-87
2022/11/05 14:11:39;;;;;;;;;;;;;;;6.97;100.00;99991.63;4998963;28;19918;-88
2022/11/05 14:14:07;;;;;;;;;;;;;;;6.96;100.00;99974.09;5016762;28;20368;-88
2022/11/05 14:16:50;;;;;;;;;;;;;;;6.97;100.00;99979.31;5016496;28;19920;-88
2022/11/05 14:19:18;;;;;;;;;;;;;;;6.99;100.00;99979.28;5015597;28;19923;-88
2022/11/05 14:21:44;;;;;;;;;;;;;;;7.01;100.00;99970.44;4998670;28;19925;-89
2022/11/05 14:24:21;;;;;;;;;;;;;;;7.05;100.00;99979.13;5014284;28;19922;-89
2022/11/05 14:27:13;;;;;;;;;;;;;;;7.08;100.00;99972.03;4998630;28;19920;-88
2022/11/05 14:29:38;;;;;;;;;;;;;;;7.12;100.00;99959.63;4983093;28;20403;-87
2022/11/05 14:32:24;;;;;;;;;;;;;;;7.13;100.00;99961.34;4998394;28;19918;-88
2022/11/05 14:35:03;;;;;;;;;;;;;;;7.14;100.00;99957.81;5015458;28;19949;-86
2022/11/05 14:37:57;;;;;;;;;;;;;;;7.15;100.00;99963.94;5016383;28;19918;-88
2022/11/05 14:40:35;;;;;;;;;;;;;;;7.16;100.00;99957.78;4998450;28;19976;-89
2022/11/05 14:43:20;;;;;;;;;;;;;;;7.17;100.00;99956.88;5016133;28;20292;-87
2022/11/05 14:46:02;;;;;;;;;;;;;;;7.20;100.00;99959.44;5015229;28;19918;-86
2022/11/05 14:48:39;;;;;;;;;;;;;;;7.22;100.00;99955.84;5014815;28;19921;-86
2022/11/05 14:51:24;;;;;;;;;;;;;;;7.22;100.00;99950.56;4998463;28;19924;-87
2022/11/05 14:53:56;;;;;;;;;;;;;;;7.21;100.00;99948.84;5015826;28;19917;-87
2022/11/05 14:56:22;;;;;;;;;;;;;;;7.24;100.00;99950.53;5015046;28;19913;-86
2022/11/05 14:58:47;;;;;;;;;;;;;;;7.30;100.00;99960.91;4997352;28;19928;-86
2022/11/05 15:01:12;;;;;;;;;;;;;;;7.31;100.00;99960.00;5015581;28;19917;-87
2022/11/05 15:03:37;;;;;;;;;;;;;;;7.35;100.00;99951.09;5014559;28;20014;-85
2022/11/05 15:06:30;;;;;;;;;;;;;;;7.36;100.00;99950.19;5015481;28;19944;-89
2022/11/05 15:09:12;;;;;;;;;;;;;;;7.37;100.00;99953.69;5015803;28;19925;-87
2022/11/05 15:12:01;;;;;;;;;;;;;;;7.36;100.00;99952.84;5015298;28;19924;-88
2022/11/05 15:14:35;;;;;;;;;;;;;;;7.39;100.00;99957.19;4970337;28;20365;-88
2022/11/05 15:17:07;;;;;;;;;;;;;;;7.41;100.00;99960.63;4997850;28;20004;-88
2022/11/05 15:19:35;;;;;;;;;;;;;;;7.43;100.00;99959.66;5014278;28;19921;-87
2022/11/05 15:22:03;;;;;;;;;;;;;;;7.45;100.00;99955.22;5002921;23;20426;-88
2022/11/05 15:24:29;;;;;;;;;;;;;;;7.46;100.00;99953.44;4997840;28;19925;-87
2022/11/05 15:27:00;;;;;;;;;;;;;;;7.48;100.00;99956.91;4997758;28;20060;-88
2022/11/05 15:29:29;;;;;;;;;;;;;;;7.49;100.00;99969.19;5015312;28;20331;-87
2022/11/05 15:31:55;;;;;;;;;;;;;;;7.51;100.00;99975.28;5015326;28;19917;-89
2022/11/05 15:34:20;;;;;;;;;;;;;;;7.52;100.00;99976.16;5014016;28;20435;-88
2022/11/05 15:36:56;;;;;;;;;;;;;;;7.52;100.00;99969.09;4997461;28;19921;-88
2022/11/05 15:39:31;;;;;;;;;;;;;;;7.53;100.00;99965.56;4997673;28;19921;-87
2022/11/05 15:41:57;;;;;;;;;;;;;;;7.54;100.00;99961.16;5015177;28;19923;-87
2022/11/05 15:44:23;;;;;;;;;;;;;;;7.56;100.00;99959.31;4997520;28;19918;-87
2022/11/05 15:47:02;;;;;;;;;;;;;;;7.57;100.00;99966.34;4994285;28;19989;-87
2022/11/05 15:49:28;;;;;;;;;;;;;;;7.61;100.00;99968.84;5003532;28;19953;-88
2022/11/05 15:51:53;;;;;;;;;;;;;;;7.60;100.00;99961.00;5000561;28;19964;-87
2022/11/05 15:54:19;;;;;;;;;;;;;;;7.64;100.00;99967.88;5006747;28;19933;-88
2022/11/05 15:56:53;;;;;;;;;;;;;;;7.64;100.00;99963.50;5004105;28;19917;-88
2022/11/05 15:59:19;;;;;;;;;;;;;;;7.66;100.00;99963.47;5006694;28;19921;-89
2022/11/05 16:01:56;;;;;;;;;;;;;;;7.67;100.00;99969.59;5005246;28;19964;-91
2022/11/05 16:04:23;;;;;;;;;;;;;;;7.71;100.00;99964.19;5013719;28;20295;-85
2022/11/05 16:06:51;;;;;;;;;;;;;;;7.70;100.00;99962.44;5014397;28;19917;-86
2022/11/05 16:09:24;;;;;;;;;;;;;;;7.70;100.00;99961.59;5014379;28;19971;-87
2022/11/05 16:12:08;;;;;;;;;;;;;;;7.73;100.00;99967.63;5014384;28;19944;-89
2022/11/05 16:14:34;;;;;;;;;;;;;;;7.76;100.00;99964.91;5014321;28;19918;-88
2022/11/05 16:17:08;;;;;;;;;;;;;;;7.78;100.00;99963.09;5014297;28;20017;-87
2022/11/05 16:19:40;;;;;;;;;;;;;;;7.78;100.00;99963.09;5013419;28;20369;-88
2022/11/05 16:22:05;;;;;;;;;;;;;;;7.80;100.00;99965.69;5014034;28;20292;-87
2022/11/05 16:24:30;;;;;;;;;;;;;;;7.85;100.00;99968.19;4996615;28;19918;-88
2022/11/05 16:27:18;;;;;;;;;;;;;;;7.85;100.00;99976.09;5014428;28;20000;-92
2022/11/05 16:30:00;;;;;;;;;;;;;;;7.87;100.00;99974.31;5004221;28;19976;-89
2022/11/05 16:32:35;;;;;;;;;;;;;;;7.87;100.00;99963.75;4995668;28;19926;-96
2022/11/05 16:35:01;;;;;;;;;;;;;;;7.88;100.00;99974.28;5008121;28;19922;-88
2022/11/05 16:37:28;;;;;;;;;;;;;;;7.90;100.00;99967.16;4998767;28;19918;-91
2022/11/05 16:39:54;;;;;;;;;;;;;;;7.91;100.00;99970.66;5005388;28;19918;-87
2022/11/05 16:42:37;;;;;;;;;;;;;;;7.93;100.00;99972.34;4980818;28;19949;-94
2022/11/05 16:45:03;;;;;;;;;;;;;;;7.95;100.00;99967.03;4996108;28;19922;-87
2022/11/05 16:47:30;;;;;;;;;;;;;;;7.97;100.00;99970.47;5012634;28;20452;-89
2022/11/05 16:49:56;;;;;;;;;;;;;;;7.95;100.00;99972.31;4985192;28;19918;-86
2022/11/05 16:52:21;;;;;;;;;;;;;;;7.97;100.00;99976.63;4994041;28;19985;-88
2022/11/05 16:54:49;;;;;;;;;;;;;;;7.98;100.00;99977.50;4993904;28;19925;-91
2022/11/05 16:57:17;;;;;;;;;;;;;;;8.02;100.00;99979.13;4994011;28;19973;-87
2022/11/05 16:59:43;;;;;;;;;;;;;;;8.03;100.00;99975.59;4979794;28;20400;-88
2022/11/05 17:02:24;;;;;;;;;;;;;;;8.05;100.00;99976.41;5002784;28;19965;-91
2022/11/05 17:04:49;;;;;;;;;;;;;;;8.08;100.00;99976.31;4995887;28;19960;-86
2022/11/05 17:07:14;;;;;;;;;;;;;;;8.08;100.00;99981.59;5010978;28;19922;-87
2022/11/05 17:09:39;;;;;;;;;;;;;;;8.59;100.00;99979.22;4992018;28;19918;-86
2022/11/05 17:12:05;;;;;;;;;;;;;;;8.33;100.00;99986.16;5008771;28;20665;-85
2022/11/05 17:14:30;;;;;;;;;;;;;;;8.27;100.00;99978.41;4991155;28;19921;-89
2022/11/05 17:16:58;;;;;;;;;;;;;;;8.26;100.00;99988.09;4985473;28;19918;-85
2022/11/05 17:19:23;;;;;;;;;;;;;;;8.26;100.00;99987.22;5002184;28;19918;-86
2022/11/05 17:21:48;;;;;;;;;;;;;;;8.26;100.00;99989.88;5002442;28;20021;-87
2022/11/05 17:24:14;;;;;;;;;;;;;;;8.29;100.00;99997.69;5007896;28;20317;-85
2022/11/05 17:26:39;;;;;;;;;;;;;;;8.29;100.00;99995.06;4985308;28;19988;-86
2022/11/05 17:29:04;;;;;;;;;;;;;;;8.29;100.00;100000.34;5012954;28;20293;-86
2022/11/05 17:31:29;;;;;;;;;;;;;;;8.30;100.00;99995.00;5013218;28;19972;-86
2022/11/05 17:33:55;;;;;;;;;;;;;;;8.29;100.00;99995.91;5012238;28;19918;-86
2022/11/05 17:36:20;;;;;;;;;;;;;;;8.32;100.00;100002.88;5013253;28;19914;-86
2022/11/05 17:38:46;;;;;;;;;;;;;;;8.33;100.00;99997.56;5009064;28;20364;-86
2022/11/05 17:41:16;;;;;;;;;;;;;;;8.34;100.00;99996.66;4995078;28;19918;-86
2022/11/05 17:43:41;;;;;;;;;;;;;;;8.37;100.00;99996.53;5009130;28;19918;-85
2022/11/05 17:46:07;;;;;;;;;;;;;;;8.37;100.00;99991.25;5007684;28;19996;-86
2022/11/05 17:48:33;;;;;;;;;;;;;;;8.39;100.00;99995.63;5009708;28;19981;-86
2022/11/05 17:50:58;;;;;;;;;;;;;;;8.38;100.00;99997.44;5004794;28;19933;-87
2022/11/05 17:53:24;;;;;;;;;;;;;;;8.43;100.00;99994.66;5017220;28;19940;-86
2022/11/05 17:55:49;;;;;;;;;;;;;;;8.42;100.00;99998.19;5010791;28;20016;-85
2022/11/05 17:58:14;;;;;;;;;;;;;;;8.43;100.00;100003.47;5011501;28;20257;-86
2022/11/05 18:00:40;;;;;;;;;;;;;;;8.45;100.00;100006.06;4998840;28;19922;-86
2022/11/05 18:03:06;;;;;;;;;;;;;;;8.45;100.00;100001.63;5015608;28;19918;-86
2022/11/05 18:05:32;;;;;;;;;;;;;;;8.46;100.00;99997.22;4996783;28;19918;-85
2022/11/05 18:07:57;;;;;;;;;;;;;;;8.47;100.00;99997.19;5013616;28;19925;-87
2022/11/05 18:10:22;;;;;;;;;;;;;;;8.46;100.00;100006.00;5016760;28;19917;-87
2022/11/05 18:12:48;;;;;;;;;;;;;;;8.48;100.00;100004.19;5016908;28;19944;-86
2022/11/05 18:15:13;;;;;;;;;;;;;;;8.50;100.00;99999.72;5016632;28;20269;-86
2022/11/05 18:17:39;;;;;;;;;;;;;;;8.50;100.00;99997.09;5015658;28;19983;-86
2022/11/05 18:20:07;;;;;;;;;;;;;;;8.51;100.00;100009.38;5016682;28;19925;-86
2022/11/05 18:22:33;;;;;;;;;;;;;;;8.54;100.00;100001.34;4995601;28;19994;-86
2022/11/05 18:24:58;;;;;;;;;;;;;;;8.52;100.00;100005.81;4996985;28;19918;-87
2022/11/05 18:27:26;;;;;;;;;;;;;;;8.54;100.00;100006.63;4995602;28;20012;-86
2022/11/05 18:29:51;;;;;;;;;;;;;;;8.61;100.00;100009.09;4996682;28;20013;-86
2022/11/05 18:32:16;;;;;;;;;;;;;;;8.60;100.00;100013.50;4993246;28;20334;-87
2022/11/05 18:34:42;;;;;;;;;;;;;;;8.59;100.00;100006.50;4989222;28;19925;-87
2022/11/05 18:37:07;;;;;;;;;;;;;;;8.60;100.00;100002.94;4996685;28;20412;-86